INFORMACIÓN METAR y TAF
METAR FOR LETL
ADDS - METARS form results

(0831 UTC 24 April 2019)
Data provider http://aviationweather.gov/metar/data/
 
METAR text: LETL 240800Z AUTO 21011KT 9999 FEW033 05/M00 Q1006
Conditions at: LETL (TERUEL , ES) observed 0800 UTC 24 April 2019
Temperature: 5.0°C (41°F)
Dewpoint: 0.0°C (32°F) [RH = 70%]
Pressure (altimeter): 29.70 inches Hg (1006.0 mb)
Winds: from the SSW (210 degrees) at 13 MPH (11 knots; 5.7 m/s)
Visibility: 6 or more miles (10+ km)
Ceiling: at least 12,000 feet AGL
Clouds: few clouds at 3300 feet AGL
Weather: no significant weather observed at this time

 MAPA DE AEROPUERTO

 INFORMACIÓN DE PISTA

 FRECUANCIAS DEL AEROPUERTO

 RADIO AYUDAS DEL AEROPUERTO



Powered by Virtual Airlines Manager [v2.6.2]